createdAt,value
2018-09-22T00:00:02.672Z,1000.56
2018-09-22T00:01:02.664Z,1000.54
2018-09-22T00:02:02.657Z,1000.55
2018-09-22T00:03:02.653Z,1000.54
2018-09-22T00:04:02.640Z,1000.53
2018-09-22T00:05:02.619Z,1000.55
2018-09-22T00:06:02.612Z,1000.54
2018-09-22T00:07:02.615Z,1000.51
2018-09-22T00:08:02.589Z,1000.53
2018-09-22T00:09:02.577Z,1000.60
2018-09-22T00:10:02.579Z,1000.55
2018-09-22T00:11:02.552Z,1000.60
2018-09-22T00:12:02.545Z,1000.58
2018-09-22T00:13:02.584Z,1000.59
2018-09-22T00:14:02.526Z,1000.62
2018-09-22T00:15:02.509Z,1000.68
2018-09-22T00:16:02.522Z,1000.64
2018-09-22T00:17:02.488Z,1000.71
2018-09-22T00:18:02.476Z,1000.71
2018-09-22T00:19:02.470Z,1000.73
2018-09-22T00:20:02.468Z,1000.75
2018-09-22T00:21:02.452Z,1000.80
2018-09-22T00:22:02.437Z,1000.79
2018-09-22T00:23:02.423Z,1000.73
2018-09-22T00:24:02.419Z,1000.70
2018-09-22T00:25:02.413Z,1000.73
2018-09-22T00:26:02.688Z,1000.72
2018-09-22T00:27:02.383Z,1000.78
2018-09-22T00:28:02.366Z,1000.77
2018-09-22T00:29:02.358Z,1000.83
2018-09-22T00:30:02.348Z,1000.83
2018-09-22T00:31:02.332Z,1000.80
2018-09-22T00:32:02.584Z,1000.94
2018-09-22T00:33:02.315Z,1000.90
2018-09-22T00:34:02.572Z,1000.89
2018-09-22T00:35:02.289Z,1000.92
2018-09-22T00:36:02.291Z,1000.93
2018-09-22T00:37:02.268Z,1000.96
2018-09-22T00:38:02.263Z,1000.91
2018-09-22T00:39:02.258Z,1000.91
2018-09-22T00:40:02.247Z,1000.95
2018-09-22T00:41:02.754Z,1000.92
2018-09-22T00:42:02.241Z,1000.91
2018-09-22T00:43:02.200Z,1000.92
2018-09-22T00:44:02.461Z,1000.95
2018-09-22T00:45:02.187Z,1000.89
2018-09-22T00:46:02.169Z,1000.94
2018-09-22T00:47:02.153Z,1000.90
2018-09-22T00:48:02.669Z,1000.90
2018-09-22T00:49:02.136Z,1000.91
2018-09-22T00:50:02.125Z,1001.01
2018-09-22T00:51:02.119Z,1001.03
2018-09-22T00:52:02.099Z,1001.02
2018-09-22T00:53:02.353Z,1001.03
2018-09-22T00:54:02.091Z,1001.05
2018-09-22T00:55:02.069Z,1001.10
2018-09-22T00:56:02.069Z,1001.04
2018-09-22T00:57:02.046Z,1001.03
2018-09-22T00:58:02.035Z,1001.07
2018-09-22T00:59:02.160Z,1000.99
2018-09-22T01:00:02.018Z,1001.05
2018-09-22T01:01:02.000Z,1001.06
2018-09-22T01:02:04.907Z,1001.02
2018-09-22T01:03:01.983Z,1001.05
2018-09-22T01:04:02.007Z,1001.11
2018-09-22T01:05:01.957Z,1001.09
2018-09-22T01:06:01.966Z,1001.06
2018-09-22T01:07:01.935Z,1001.06
2018-09-22T01:08:01.927Z,1001.05
2018-09-22T01:09:01.932Z,1001.09
2018-09-22T01:10:01.962Z,1001.18
2018-09-22T01:11:01.895Z,1001.03
2018-09-22T01:12:01.882Z,1001.07
2018-09-22T01:13:01.874Z,1001.14
2018-09-22T01:14:01.874Z,1001.17
2018-09-22T01:15:01.854Z,1001.10
2018-09-22T01:16:02.113Z,1001.07
2018-09-22T01:17:01.861Z,1001.08
2018-09-22T01:18:01.815Z,1001.10
2018-09-22T01:19:01.803Z,1001.08
2018-09-22T01:20:02.059Z,1001.15
2018-09-22T01:21:01.791Z,1001.15
2018-09-22T01:22:01.774Z,1001.16
2018-09-22T01:23:01.772Z,1001.16
2018-09-22T01:24:01.754Z,1001.15
2018-09-22T01:25:01.740Z,1001.13
2018-09-22T01:26:01.746Z,1001.18
2018-09-22T01:27:01.984Z,1001.19
2018-09-22T01:28:01.705Z,1001.23
2018-09-22T01:29:01.730Z,1001.25
2018-09-22T01:30:01.696Z,1001.23
2018-09-22T01:31:01.672Z,1001.22
2018-09-22T01:32:01.673Z,1001.27
2018-09-22T01:33:01.653Z,1001.28
2018-09-22T01:34:02.172Z,1001.34
2018-09-22T01:35:01.632Z,1001.36
2018-09-22T01:36:01.635Z,1001.32
2018-09-22T01:37:01.614Z,1001.34
2018-09-22T01:38:01.594Z,1001.35
2018-09-22T01:39:01.583Z,1001.35
2018-09-22T01:40:01.578Z,1001.36
2018-09-22T01:41:01.562Z,1001.37
2018-09-22T01:42:01.566Z,1001.41
2018-09-22T01:43:01.543Z,1001.42
2018-09-22T01:44:01.527Z,1001.44
2018-09-22T01:45:01.519Z,1001.43
2018-09-22T01:46:01.508Z,1001.39
2018-09-22T01:47:02.972Z,1001.44
2018-09-22T01:48:01.486Z,1001.45
2018-09-22T01:49:01.473Z,1001.46
2018-09-22T01:50:01.477Z,1001.51
2018-09-22T01:51:01.451Z,1001.50
2018-09-22T01:52:01.440Z,1001.54
2018-09-22T01:53:01.686Z,1001.53
2018-09-22T01:54:01.421Z,1001.54
2018-09-22T01:55:01.679Z,1001.56
2018-09-22T01:56:01.398Z,1001.57
2018-09-22T01:57:01.384Z,1001.53
2018-09-22T01:58:01.371Z,1001.55
2018-09-22T01:59:01.617Z,1001.57
2018-09-22T02:00:01.353Z,1001.58
2018-09-22T02:01:01.403Z,1001.56
2018-09-22T02:02:01.341Z,1001.54
2018-09-22T02:03:01.318Z,1001.49
2018-09-22T02:04:01.309Z,1001.49
2018-09-22T02:05:01.298Z,1001.56
2018-09-22T02:06:01.555Z,1001.55
2018-09-22T02:07:01.545Z,1001.51
2018-09-22T02:08:01.275Z,1001.53
2018-09-22T02:09:01.261Z,1001.49
2018-09-22T02:10:01.249Z,1001.45
2018-09-22T02:11:01.231Z,1001.56
2018-09-22T02:12:01.217Z,1001.54
2018-09-22T02:13:01.224Z,1001.51
2018-09-22T02:14:01.198Z,1001.49
2018-09-22T02:15:01.197Z,1001.47
2018-09-22T02:16:01.175Z,1001.53
2018-09-22T02:17:01.177Z,1001.54
2018-09-22T02:18:01.158Z,1001.54
2018-09-22T02:19:01.142Z,1001.54
2018-09-22T02:20:01.132Z,1001.59
2018-09-22T02:21:01.132Z,1001.63
2018-09-22T02:22:01.374Z,1001.71
2018-09-22T02:23:01.099Z,1001.75
2018-09-22T02:24:01.091Z,1001.82
2018-09-22T02:25:01.074Z,1001.75
2018-09-22T02:26:01.063Z,1001.69
2018-09-22T02:27:01.053Z,1001.73
2018-09-22T02:28:01.041Z,1001.78
2018-09-22T02:29:01.036Z,1001.80
2018-09-22T02:30:01.027Z,1001.83
2018-09-22T02:31:01.008Z,1001.80
2018-09-22T02:32:01.264Z,1001.80
2018-09-22T02:33:01.518Z,1001.83
2018-09-22T02:34:00.980Z,1001.80
2018-09-22T02:35:00.973Z,1001.80
2018-09-22T02:36:00.955Z,1001.83
2018-09-22T02:37:00.942Z,1001.87
2018-09-22T02:38:00.929Z,1001.91
2018-09-22T02:39:00.920Z,1001.99
2018-09-22T02:40:00.910Z,1001.95
2018-09-22T02:41:01.162Z,1001.89
2018-09-22T02:42:00.887Z,1001.88
2018-09-22T02:43:00.880Z,1001.89
2018-09-22T02:44:00.881Z,1001.91
2018-09-22T02:45:00.856Z,1001.98
2018-09-22T02:46:00.846Z,1001.92
2018-09-22T02:47:00.836Z,1001.93
2018-09-22T02:48:01.095Z,1001.96
2018-09-22T02:49:00.810Z,1001.95
2018-09-22T02:50:01.073Z,1001.97
2018-09-22T02:51:00.797Z,1001.94
2018-09-22T02:52:00.781Z,1002.00
2018-09-22T02:53:00.768Z,1001.97
2018-09-22T02:54:00.753Z,1001.95
2018-09-22T02:55:00.758Z,1001.96
2018-09-22T02:56:00.734Z,1001.84
2018-09-22T02:57:00.719Z,1001.79
2018-09-22T02:58:00.715Z,1001.78
2018-09-22T02:59:00.700Z,1001.81
2018-09-22T03:00:00.692Z,1001.80
2018-09-22T03:01:00.684Z,1001.82
2018-09-22T03:02:00.934Z,1001.81
2018-09-22T03:03:00.653Z,1001.84
2018-09-22T03:04:00.647Z,1001.80
2018-09-22T03:05:00.640Z,1001.82
2018-09-22T03:06:00.883Z,1001.79
2018-09-22T03:07:00.612Z,1001.83
2018-09-22T03:08:00.602Z,1001.86
2018-09-22T03:09:00.589Z,1001.89
2018-09-22T03:10:00.717Z,1001.97
2018-09-22T03:11:00.569Z,1002.05
2018-09-22T03:12:00.565Z,1002.04
2018-09-22T03:13:00.549Z,1001.97
2018-09-22T03:14:00.532Z,1001.84
2018-09-22T03:15:00.523Z,1001.87
2018-09-22T03:16:00.517Z,1001.98
2018-09-22T03:17:00.500Z,1002.06
2018-09-22T03:18:00.490Z,1001.97
2018-09-22T03:19:00.479Z,1001.98
2018-09-22T03:20:00.475Z,1001.96
2018-09-22T03:21:00.459Z,1001.98
2018-09-22T03:22:00.445Z,1002.02
2018-09-22T03:23:00.434Z,1001.98
2018-09-22T03:24:00.434Z,1002.00
2018-09-22T03:25:00.414Z,1001.94
2018-09-22T03:26:00.408Z,1001.91
2018-09-22T03:27:00.387Z,1001.88
2018-09-22T03:28:00.376Z,1001.87
2018-09-22T03:29:00.369Z,1001.87
2018-09-22T03:30:00.360Z,1001.89
2018-09-22T03:31:00.353Z,1001.88
2018-09-22T03:32:00.334Z,1001.89
2018-09-22T03:33:00.330Z,1001.93
2018-09-22T03:34:00.316Z,1001.94
2018-09-22T03:35:00.301Z,1001.96
2018-09-22T03:36:00.583Z,1002.01
2018-09-22T03:37:00.281Z,1001.93
2018-09-22T03:38:00.266Z,1001.93
2018-09-22T03:39:00.271Z,1001.94
2018-09-22T03:40:00.246Z,1001.93
2018-09-22T03:41:00.236Z,1001.93
2018-09-22T03:42:00.482Z,1001.97
2018-09-22T03:43:00.234Z,1001.97
2018-09-22T03:44:00.469Z,1001.93
2018-09-22T03:45:00.466Z,1001.93
2018-09-22T03:46:00.190Z,1001.89
2018-09-22T03:47:00.173Z,1001.87
2018-09-22T03:48:00.156Z,1001.85
2018-09-22T03:49:00.143Z,1001.87
2018-09-22T03:50:00.139Z,1001.89
2018-09-22T03:51:00.133Z,1001.90
2018-09-22T03:52:00.118Z,1001.91
2018-09-22T03:53:00.493Z,1001.92
2018-09-22T03:54:00.092Z,1001.95
2018-09-22T03:55:00.082Z,1001.93
2018-09-22T03:56:00.069Z,1001.93
2018-09-22T03:57:00.058Z,1001.96
2018-09-22T03:58:00.062Z,1001.95
2018-09-22T03:59:00.038Z,1001.90
2018-09-22T04:00:00.029Z,1001.89
2018-09-22T04:01:00.022Z,1001.83
2018-09-22T04:02:00.002Z,1001.86
2018-09-22T04:02:59.995Z,1001.82
2018-09-22T04:03:59.979Z,1001.86
2018-09-22T04:04:59.971Z,1001.87
2018-09-22T04:05:59.968Z,1001.92
2018-09-22T04:06:59.961Z,1001.89
2018-09-22T04:07:59.935Z,1001.89
2018-09-22T04:09:00.190Z,1001.84
2018-09-22T04:09:59.920Z,1001.86
2018-09-22T04:10:59.901Z,1001.86
2018-09-22T04:11:59.895Z,1001.87
2018-09-22T04:12:59.888Z,1001.86
2018-09-22T04:13:59.868Z,1001.84
2018-09-22T04:14:59.873Z,1001.85
2018-09-22T04:15:59.855Z,1001.86
2018-09-22T04:16:59.839Z,1001.89
2018-09-22T04:17:59.838Z,1001.87
2018-09-22T04:19:00.079Z,1001.88
2018-09-22T04:19:59.821Z,1001.96
2018-09-22T04:20:59.793Z,1001.94
2018-09-22T04:21:59.787Z,1001.91
2018-09-22T04:23:00.033Z,1002.02
2018-09-22T04:23:59.757Z,1002.04
2018-09-22T04:24:59.749Z,1001.98
2018-09-22T04:25:59.744Z,1002.04
2018-09-22T04:26:59.729Z,1002.00
2018-09-22T04:27:59.727Z,1001.99
2018-09-22T04:28:59.972Z,1002.01
2018-09-22T04:29:59.691Z,1002.05
2018-09-22T04:30:59.689Z,1002.04
2018-09-22T04:31:59.673Z,1002.06
2018-09-22T04:32:59.660Z,1002.00
2018-09-22T04:33:59.917Z,1002.01
2018-09-22T04:34:59.639Z,1002.05
2018-09-22T04:35:59.642Z,1002.12
2018-09-22T04:36:59.631Z,1002.14
2018-09-22T04:37:59.873Z,1002.14
2018-09-22T04:38:59.596Z,1002.22
2018-09-22T04:39:59.603Z,1002.25
2018-09-22T04:40:59.577Z,1002.25
2018-09-22T04:41:59.564Z,1002.20
2018-09-22T04:42:59.554Z,1002.16
2018-09-22T04:43:59.542Z,1002.21
2018-09-22T04:44:59.652Z,1002.25
2018-09-22T04:45:59.519Z,1002.31
2018-09-22T04:46:59.510Z,1002.30
2018-09-22T04:47:59.493Z,1002.34
2018-09-22T04:48:59.485Z,1002.33
2018-09-22T04:49:59.477Z,1002.37
2018-09-22T04:50:59.468Z,1002.35
2018-09-22T04:51:59.468Z,1002.33
2018-09-22T04:52:59.721Z,1002.28
2018-09-22T04:53:59.432Z,1002.27
2018-09-22T04:54:59.419Z,1002.27
2018-09-22T04:55:59.405Z,1002.28
2018-09-22T04:56:59.401Z,1002.29
2018-09-22T04:57:59.397Z,1002.29
2018-09-22T04:58:59.636Z,1002.27
2018-09-22T04:59:59.365Z,1002.30
2018-09-22T05:00:59.351Z,1002.35
2018-09-22T05:01:59.343Z,1002.36
2018-09-22T05:02:59.328Z,1002.42
2018-09-22T05:03:59.318Z,1002.40
2018-09-22T05:04:59.312Z,1002.44
2018-09-22T05:05:59.317Z,1002.47
2018-09-22T05:06:59.286Z,1002.46
2018-09-22T05:07:59.277Z,1002.44
2018-09-22T05:08:59.263Z,1002.43
2018-09-22T05:09:59.251Z,1002.44
2018-09-22T05:10:59.511Z,1002.50
2018-09-22T05:11:59.500Z,1002.55
2018-09-22T05:12:59.228Z,1002.53
2018-09-22T05:13:59.205Z,1002.57
2018-09-22T05:14:59.201Z,1002.56
2018-09-22T05:15:59.191Z,1002.52
2018-09-22T05:16:59.234Z,1002.51
2018-09-22T05:17:59.182Z,1002.55
2018-09-22T05:18:59.151Z,1002.57
2018-09-22T05:19:59.139Z,1002.59
2018-09-22T05:20:59.144Z,1002.62
2018-09-22T05:21:59.396Z,1002.59
2018-09-22T05:22:59.121Z,1002.62
2018-09-22T05:23:59.098Z,1002.62
2018-09-22T05:24:59.089Z,1002.63
2018-09-22T05:25:59.078Z,1002.68
2018-09-22T05:26:59.066Z,1002.68
2018-09-22T05:27:59.056Z,1002.71
2018-09-22T05:28:59.039Z,1002.71
2018-09-22T05:29:59.029Z,1002.73
2018-09-22T05:30:59.020Z,1002.72
2018-09-22T05:31:59.025Z,1002.76
2018-09-22T05:32:58.997Z,1002.78
2018-09-22T05:33:59.030Z,1002.78
2018-09-22T05:34:59.245Z,1002.76
2018-09-22T05:35:59.116Z,1002.77
2018-09-22T05:36:58.972Z,1002.76
2018-09-22T05:37:59.167Z,1002.72
2018-09-22T05:38:58.936Z,1002.76
2018-09-22T05:39:58.923Z,1002.75
2018-09-22T05:40:58.914Z,1002.82
2018-09-22T05:41:59.337Z,1002.84
2018-09-22T05:42:59.234Z,1002.85
2018-09-22T05:43:58.876Z,1002.86
2018-09-22T05:44:58.865Z,1002.90
2018-09-22T05:45:58.870Z,1002.92
2018-09-22T05:46:58.845Z,1002.96
2018-09-22T05:47:58.859Z,1003.02
2018-09-22T05:48:58.827Z,1003.10
2018-09-22T05:49:58.812Z,1003.10
2018-09-22T05:50:58.800Z,1003.11
2018-09-22T05:51:58.789Z,1003.14
2018-09-22T05:52:58.783Z,1003.12
2018-09-22T05:53:59.460Z,1003.13
2018-09-22T05:54:59.024Z,1003.05
2018-09-22T05:55:58.744Z,1002.98
2018-09-22T05:56:58.788Z,1003.02
2018-09-22T05:57:58.751Z,1003.09
2018-09-22T05:58:58.726Z,1003.12
2018-09-22T05:59:58.701Z,1003.14
2018-09-22T06:00:58.706Z,1003.20
2018-09-22T06:01:58.677Z,1003.15
2018-09-22T06:02:58.669Z,1003.11
2018-09-22T06:03:58.762Z,1003.07
2018-09-22T06:04:58.913Z,1003.05
2018-09-22T06:05:58.902Z,1003.01
2018-09-22T06:06:58.632Z,1002.96
2018-09-22T06:07:58.616Z,1002.96
2018-09-22T06:08:58.606Z,1002.98
2018-09-22T06:09:58.594Z,1003.01
2018-09-22T06:10:58.580Z,1003.00
2018-09-22T06:11:58.577Z,1002.97
2018-09-22T06:12:58.613Z,1002.97
2018-09-22T06:13:58.547Z,1002.97
2018-09-22T06:14:58.540Z,1002.96
2018-09-22T06:15:58.529Z,1002.96
2018-09-22T06:16:58.522Z,1002.94
2018-09-22T06:17:58.512Z,1002.95
2018-09-22T06:18:58.491Z,1002.93
2018-09-22T06:19:58.485Z,1002.95
2018-09-22T06:20:58.472Z,1002.92
2018-09-22T06:21:58.727Z,1002.93
2018-09-22T06:22:58.471Z,1002.88
2018-09-22T06:23:58.438Z,1002.87
2018-09-22T06:24:58.426Z,1002.92
2018-09-22T06:25:58.418Z,1003.01
2018-09-22T06:26:58.404Z,1003.05
2018-09-22T06:27:58.413Z,1003.05
2018-09-22T06:28:58.387Z,1003.00
2018-09-22T06:29:58.373Z,1003.07
2018-09-22T06:30:58.361Z,1003.05
2018-09-22T06:31:58.400Z,1003.07
2018-09-22T06:32:58.610Z,1003.05
2018-09-22T06:33:58.327Z,1003.00
2018-09-22T06:34:58.331Z,1002.96
2018-09-22T06:35:58.576Z,1002.94
2018-09-22T06:36:58.294Z,1002.96
2018-09-22T06:37:58.428Z,1002.91
2018-09-22T06:38:58.272Z,1002.89
2018-09-22T06:39:58.268Z,1002.81
2018-09-22T06:40:58.252Z,1002.81
2018-09-22T06:41:58.238Z,1002.83
2018-09-22T06:42:58.229Z,1002.79
2018-09-22T06:43:58.486Z,1002.77
2018-09-22T06:44:58.206Z,1002.72
2018-09-22T06:45:58.197Z,1002.70
2018-09-22T06:46:58.201Z,1002.64
2018-09-22T06:47:58.186Z,1002.63
2018-09-22T06:48:58.292Z,1002.64
2018-09-22T06:49:58.416Z,1002.64
2018-09-22T06:50:58.131Z,1002.59
2018-09-22T06:51:58.133Z,1002.57
2018-09-22T06:52:58.122Z,1002.60
2018-09-22T06:53:58.107Z,1002.64
2018-09-22T06:54:58.210Z,1002.68
2018-09-22T06:55:58.084Z,1002.71
2018-09-22T06:56:58.083Z,1002.73
2018-09-22T06:57:58.078Z,1002.69
2018-09-22T06:58:58.051Z,1002.67
2018-09-22T06:59:58.039Z,1002.65
2018-09-22T07:00:58.029Z,1002.65
2018-09-22T07:01:58.124Z,1002.65
2018-09-22T07:02:58.013Z,1002.67
2018-09-22T07:03:58.263Z,1002.66
2018-09-22T07:04:58.004Z,1002.67
2018-09-22T07:05:57.983Z,1002.73
2018-09-22T07:06:57.961Z,1002.76
2018-09-22T07:07:57.961Z,1002.89
2018-09-22T07:08:57.941Z,1002.93
2018-09-22T07:09:57.926Z,1002.94
2018-09-22T07:10:57.922Z,1002.84
2018-09-22T07:11:57.909Z,1002.87
2018-09-22T07:12:57.899Z,1002.89
2018-09-22T07:13:58.550Z,1002.88
2018-09-22T07:14:57.875Z,1002.85
2018-09-22T07:15:57.866Z,1002.85
2018-09-22T07:16:57.848Z,1002.81
2018-09-22T07:17:58.106Z,1002.82
2018-09-22T07:18:57.833Z,1002.75
2018-09-22T07:19:57.823Z,1002.76
2018-09-22T07:20:57.807Z,1002.80
2018-09-22T07:21:57.862Z,1002.80
2018-09-22T07:22:57.799Z,1002.88
2018-09-22T07:23:57.778Z,1002.85
2018-09-22T07:24:58.032Z,1002.90
2018-09-22T07:25:58.017Z,1002.92
2018-09-22T07:26:57.752Z,1002.87
2018-09-22T07:27:57.727Z,1002.95
2018-09-22T07:28:57.983Z,1002.91
2018-09-22T07:29:57.723Z,1002.96
2018-09-22T07:30:57.896Z,1002.95
2018-09-22T07:31:57.701Z,1002.99
2018-09-22T07:32:57.681Z,1003.02
2018-09-22T07:33:57.663Z,1003.06
2018-09-22T07:34:57.914Z,1003.00
2018-09-22T07:35:57.650Z,1003.05
2018-09-22T07:36:57.640Z,1003.06
2018-09-22T07:37:57.612Z,1003.09
2018-09-22T07:38:57.606Z,1003.11
2018-09-22T07:39:57.595Z,1003.09
2018-09-22T07:40:57.584Z,1003.11
2018-09-22T07:41:57.578Z,1003.09
2018-09-22T07:42:57.842Z,1003.13
2018-09-22T07:43:58.552Z,1003.15
2018-09-22T07:44:57.541Z,1003.11
2018-09-22T07:45:57.798Z,1003.11
2018-09-22T07:46:57.519Z,1003.13
2018-09-22T07:47:57.505Z,1003.23
2018-09-22T07:48:57.497Z,1003.24
2018-09-22T07:49:57.487Z,1003.23
2018-09-22T07:50:57.473Z,1003.25
2018-09-22T07:51:57.463Z,1003.21
2018-09-22T07:52:57.450Z,1003.24
2018-09-22T07:53:57.553Z,1003.30
2018-09-22T07:54:57.428Z,1003.31
2018-09-22T07:55:57.431Z,1003.31
2018-09-22T07:56:57.537Z,1003.27
2018-09-22T07:57:57.397Z,1003.30
2018-09-22T07:58:57.389Z,1003.28
2018-09-22T07:59:57.375Z,1003.27
2018-09-22T08:00:57.365Z,1003.27
2018-09-22T08:01:57.346Z,1003.30
2018-09-22T08:02:57.345Z,1003.31
2018-09-22T08:03:57.366Z,1003.27
2018-09-22T08:04:57.586Z,1003.26
2018-09-22T08:05:57.307Z,1003.25
2018-09-22T08:06:57.304Z,1003.15
2018-09-22T08:07:57.293Z,1003.09
2018-09-22T08:08:57.538Z,1003.13
2018-09-22T08:09:57.261Z,1003.14
2018-09-22T08:10:57.253Z,1003.13
2018-09-22T08:11:57.502Z,1003.17
2018-09-22T08:12:57.231Z,1003.17
2018-09-22T08:13:57.217Z,1003.16
2018-09-22T08:14:57.211Z,1003.14
2018-09-22T08:15:57.199Z,1003.14
2018-09-22T08:16:57.187Z,1003.14
2018-09-22T08:17:57.183Z,1003.15
2018-09-22T08:18:57.166Z,1003.16
2018-09-22T08:19:57.177Z,1003.17
2018-09-22T08:20:57.157Z,1003.24
2018-09-22T08:21:57.132Z,1003.21
2018-09-22T08:22:57.127Z,1003.26
2018-09-22T08:23:57.125Z,1003.22
2018-09-22T08:24:57.115Z,1003.21
2018-09-22T08:25:57.087Z,1003.26
2018-09-22T08:26:57.078Z,1003.31
2018-09-22T08:27:57.065Z,1003.40
2018-09-22T08:28:57.079Z,1003.42
2018-09-22T08:29:57.045Z,1003.38
2018-09-22T08:30:57.048Z,1003.39
2018-09-22T08:31:57.287Z,1003.34
2018-09-22T08:32:57.317Z,1003.37
2018-09-22T08:33:57.001Z,1003.39
2018-09-22T08:34:56.995Z,1003.39
2018-09-22T08:35:58.518Z,1003.42
2018-09-22T08:36:57.142Z,1003.35
2018-09-22T08:37:56.955Z,1003.33
2018-09-22T08:38:57.212Z,1003.26
2018-09-22T08:39:56.932Z,1003.26
2018-09-22T08:40:57.180Z,1003.26
2018-09-22T08:41:57.173Z,1003.21
2018-09-22T08:42:56.903Z,1003.21
2018-09-22T08:43:57.052Z,1003.18
2018-09-22T08:44:56.941Z,1003.15
2018-09-22T08:45:56.868Z,1003.14
2018-09-22T08:46:56.856Z,1003.15
2018-09-22T08:47:56.953Z,1003.09
2018-09-22T08:48:56.831Z,1003.06
2018-09-22T08:49:56.847Z,1003.10
2018-09-22T08:50:56.854Z,1003.01
2018-09-22T08:51:57.058Z,1003.03
2018-09-22T08:52:56.787Z,1003.02
2018-09-22T08:53:56.776Z,1003.06
2018-09-22T08:54:56.768Z,1003.14
2018-09-22T08:55:56.767Z,1003.20
2018-09-22T08:56:57.003Z,1003.23
2018-09-22T08:57:56.793Z,1003.24
2018-09-22T08:58:56.847Z,1003.25
2018-09-22T08:59:56.731Z,1003.27
2018-09-22T09:00:56.819Z,1003.25
2018-09-22T09:01:56.956Z,1003.24
2018-09-22T09:02:56.697Z,1003.21
2018-09-22T09:03:56.930Z,1003.12
2018-09-22T09:04:56.713Z,1003.13
2018-09-22T09:05:56.682Z,1003.04
2018-09-22T09:06:56.635Z,1002.99
2018-09-22T09:07:56.889Z,1002.91
2018-09-22T09:08:56.628Z,1002.90
2018-09-22T09:09:56.601Z,1002.86
2018-09-22T09:10:56.588Z,1002.91
2018-09-22T09:11:56.578Z,1002.98
2018-09-22T09:12:56.567Z,1003.03
2018-09-22T09:13:56.925Z,1003.04
2018-09-22T09:14:56.804Z,1003.03
2018-09-22T09:15:56.532Z,1002.89
2018-09-22T09:16:56.550Z,1002.88
2018-09-22T09:17:56.638Z,1002.87
2018-09-22T09:18:56.516Z,1002.85
2018-09-22T09:19:56.495Z,1002.85
2018-09-22T09:20:56.478Z,1002.84
2018-09-22T09:21:56.739Z,1002.79
2018-09-22T09:22:56.715Z,1002.84
2018-09-22T09:23:56.453Z,1002.89
2018-09-22T09:24:56.437Z,1002.90
2018-09-22T09:25:56.702Z,1002.95
2018-09-22T09:26:56.415Z,1002.93
2018-09-22T09:27:56.401Z,1002.95
2018-09-22T09:28:56.497Z,1002.96
2018-09-22T09:29:56.657Z,1002.96
2018-09-22T09:30:56.472Z,1002.98
2018-09-22T09:31:56.445Z,1003.00
2018-09-22T09:32:56.457Z,1003.06
2018-09-22T09:33:56.333Z,1003.08
2018-09-22T09:34:56.330Z,1003.10
2018-09-22T09:35:56.576Z,1003.09
2018-09-22T09:36:56.462Z,1003.12
2018-09-22T09:37:56.298Z,1003.07
2018-09-22T09:38:56.315Z,1003.06
2018-09-22T09:39:56.289Z,1003.08
2018-09-22T09:40:56.256Z,1003.04
2018-09-22T09:41:56.245Z,1002.97
2018-09-22T09:42:56.240Z,1002.97
2018-09-22T09:43:56.227Z,1002.95
2018-09-22T09:44:56.217Z,1002.89
2018-09-22T09:45:56.205Z,1002.85
2018-09-22T09:46:56.206Z,1002.78
2018-09-22T09:47:56.227Z,1002.75
2018-09-22T09:48:56.177Z,1002.81
2018-09-22T09:49:56.161Z,1002.77
2018-09-22T09:50:56.152Z,1002.70
2018-09-22T09:51:56.142Z,1002.69
2018-09-22T09:52:56.132Z,1002.71
2018-09-22T09:53:56.147Z,1002.59
2018-09-22T09:54:56.116Z,1002.59
2018-09-22T09:55:56.139Z,1002.57
2018-09-22T09:56:56.089Z,1002.67
2018-09-22T09:57:56.078Z,1002.57
2018-09-22T09:58:56.065Z,1002.52
2018-09-22T09:59:56.062Z,1002.52
2018-09-22T10:00:56.347Z,1002.42
2018-09-22T10:01:56.042Z,1002.44
2018-09-22T10:02:56.016Z,1002.48
2018-09-22T10:03:56.009Z,1002.48
2018-09-22T10:04:56.019Z,1002.45
2018-09-22T10:05:55.982Z,1002.44
2018-09-22T10:06:55.973Z,1002.43
2018-09-22T10:07:55.978Z,1002.44
2018-09-22T10:08:56.075Z,1002.40
2018-09-22T10:09:56.210Z,1002.41
2018-09-22T10:10:55.944Z,1002.41
2018-09-22T10:11:55.984Z,1002.45
2018-09-22T10:12:56.008Z,1002.48
2018-09-22T10:13:56.153Z,1002.52
2018-09-22T10:14:55.889Z,1002.47
2018-09-22T10:15:55.886Z,1002.40
2018-09-22T10:16:55.872Z,1002.29
2018-09-22T10:17:55.961Z,1002.25
2018-09-22T10:18:55.836Z,1002.29
2018-09-22T10:19:55.964Z,1002.31
2018-09-22T10:20:55.816Z,1002.32
2018-09-22T10:21:55.808Z,1002.27
2018-09-22T10:22:55.794Z,1002.32
2018-09-22T10:23:55.788Z,1002.38
2018-09-22T10:24:55.791Z,1002.42
2018-09-22T10:25:55.762Z,1002.37
2018-09-22T10:26:56.016Z,1002.38
2018-09-22T10:27:55.811Z,1002.29
2018-09-22T10:28:55.784Z,1002.30
2018-09-22T10:29:55.726Z,1002.27
2018-09-22T10:30:55.783Z,1002.28
2018-09-22T10:31:55.692Z,1002.30
2018-09-22T10:32:55.682Z,1002.31
2018-09-22T10:33:55.673Z,1002.31
2018-09-22T10:34:55.666Z,1002.24
2018-09-22T10:35:55.655Z,1002.14
2018-09-22T10:36:55.654Z,1002.17
2018-09-22T10:37:55.626Z,1002.18
2018-09-22T10:38:55.881Z,1002.13
2018-09-22T10:39:57.369Z,1002.16
2018-09-22T10:40:55.615Z,1002.08
2018-09-22T10:41:55.608Z,1002.07
2018-09-22T10:42:55.575Z,1002.12
2018-09-22T10:43:55.559Z,1002.07
2018-09-22T10:44:55.615Z,1002.17
2018-09-22T10:45:55.809Z,1002.18
2018-09-22T10:46:55.527Z,1002.23
2018-09-22T10:47:55.516Z,1002.21
2018-09-22T10:48:55.614Z,1002.11
2018-09-22T10:49:55.498Z,1002.08
2018-09-22T10:50:55.497Z,1002.05
2018-09-22T10:51:55.737Z,1002.09
2018-09-22T10:52:55.480Z,1002.10
2018-09-22T10:53:55.461Z,1002.09
2018-09-22T10:54:55.443Z,1002.06
2018-09-22T10:55:55.429Z,1002.00
2018-09-22T10:56:55.416Z,1002.01
2018-09-22T10:57:55.504Z,1001.98
2018-09-22T10:58:55.409Z,1001.95
2018-09-22T10:59:55.393Z,1001.97
2018-09-22T11:00:55.640Z,1002.01
2018-09-22T11:01:55.362Z,1002.00
2018-09-22T11:02:55.354Z,1002.03
2018-09-22T11:03:55.344Z,1002.06
2018-09-22T11:04:55.328Z,1002.01
2018-09-22T11:05:55.327Z,1002.04
2018-09-22T11:06:55.324Z,1002.04
2018-09-22T11:07:55.305Z,1002.06
2018-09-22T11:08:55.290Z,1002.03
2018-09-22T11:09:55.288Z,1002.02
2018-09-22T11:10:55.284Z,1001.96
2018-09-22T11:11:55.255Z,1001.94
2018-09-22T11:12:55.249Z,1001.94
2018-09-22T11:13:55.235Z,1001.95
2018-09-22T11:14:55.238Z,1001.94
2018-09-22T11:15:55.213Z,1001.98
2018-09-22T11:16:55.200Z,1002.01
2018-09-22T11:17:55.203Z,1002.04
2018-09-22T11:18:55.181Z,1002.05
2018-09-22T11:19:55.171Z,1002.10
2018-09-22T11:20:55.170Z,1002.04
2018-09-22T11:21:55.149Z,1002.04
2018-09-22T11:22:55.142Z,1001.96
2018-09-22T11:23:55.385Z,1001.96
2018-09-22T11:24:55.115Z,1001.99
2018-09-22T11:25:55.106Z,1001.96
2018-09-22T11:26:55.283Z,1001.97
2018-09-22T11:27:55.894Z,1001.95
2018-09-22T11:28:55.072Z,1001.92
2018-09-22T11:29:55.061Z,1001.97
2018-09-22T11:30:55.063Z,1001.93
2018-09-22T11:31:55.038Z,1001.95
2018-09-22T11:32:55.026Z,1001.85
2018-09-22T11:33:55.125Z,1001.86
2018-09-22T11:34:55.006Z,1001.90
2018-09-22T11:35:55.000Z,1001.90
2018-09-22T11:36:55.016Z,1001.90
2018-09-22T11:37:55.074Z,1001.83
2018-09-22T11:38:55.019Z,1001.84
2018-09-22T11:39:54.951Z,1001.81
2018-09-22T11:40:54.948Z,1001.75
2018-09-22T11:41:55.046Z,1001.69
2018-09-22T11:42:55.304Z,1001.62
2018-09-22T11:43:54.908Z,1001.63
2018-09-22T11:44:54.900Z,1001.60
2018-09-22T11:45:54.896Z,1001.50
2018-09-22T11:46:54.876Z,1001.56
2018-09-22T11:47:54.863Z,1001.60
2018-09-22T11:48:54.854Z,1001.55
2018-09-22T11:49:54.839Z,1001.60
2018-09-22T11:50:54.848Z,1001.61
2018-09-22T11:51:54.819Z,1001.60
2018-09-22T11:52:54.811Z,1001.50
2018-09-22T11:53:55.062Z,1001.57
2018-09-22T11:54:54.788Z,1001.56
2018-09-22T11:55:54.778Z,1001.49
2018-09-22T11:56:54.867Z,1001.48
2018-09-22T11:57:54.772Z,1001.45
2018-09-22T11:58:54.743Z,1001.46
2018-09-22T11:59:54.731Z,1001.42
2018-09-22T12:00:54.737Z,1001.45
2018-09-22T12:01:54.730Z,1001.44
2018-09-22T12:02:54.701Z,1001.45
2018-09-22T12:03:54.688Z,1001.44
2018-09-22T12:04:54.676Z,1001.41